Terminal Aerodrome Forecast
Issued by NWS

Home | Current Version | Previous Version | Text Only | Print | Product List | Glossary Off
Versions: 1 2 3 4 5 6 7 8 9 10 11 12 13 14

299
FTUS43 KMPX 031138
TAFRWF
TAF
KRWF 031138Z 0312/0412 28004KT P6SM OVC022
     FM031500 17006KT P6SM BKN028 OVC035
     FM031800 16009KT P6SM BKN035
     FM032300 16010KT 4SM -SN OVC030
      TEMPO 0401/0405 2SM -SN OVC020
     FM040600 17010KT P6SM OVC015=

USA.gov is the U.S. government's official web portal to all federal, state and local government web resources and services.